sensor_id;sensor_type;location;lat;lon;timestamp;temperature;humidity
45491;DHT22;31237;45.586;13.782;2023-03-01T00:02:05;3.30;77.40
45491;DHT22;31237;45.586;13.782;2023-03-01T00:04:32;3.30;77.20
45491;DHT22;31237;45.586;13.782;2023-03-01T00:06:57;3.30;77.20
45491;DHT22;31237;45.586;13.782;2023-03-01T00:09:23;3.30;77.20
45491;DHT22;31237;45.586;13.782;2023-03-01T00:11:49;3.30;77.30
45491;DHT22;31237;45.586;13.782;2023-03-01T00:14:14;3.20;77.30
45491;DHT22;31237;45.586;13.782;2023-03-01T00:16:43;3.20;77.30
45491;DHT22;31237;45.586;13.782;2023-03-01T00:19:13;3.30;77.40
45491;DHT22;31237;45.586;13.782;2023-03-01T00:21:40;3.30;77.10
45491;DHT22;31237;45.586;13.782;2023-03-01T00:24:06;3.30;77.10
45491;DHT22;31237;45.586;13.782;2023-03-01T00:26:32;3.30;77.00
45491;DHT22;31237;45.586;13.782;2023-03-01T00:28:58;3.30;77.00
45491;DHT22;31237;45.586;13.782;2023-03-01T00:31:27;3.30;76.90
45491;DHT22;31237;45.586;13.782;2023-03-01T00:33:55;3.30;76.90
45491;DHT22;31237;45.586;13.782;2023-03-01T00:36:23;3.20;76.70
45491;DHT22;31237;45.586;13.782;2023-03-01T00:38:50;3.30;76.70
45491;DHT22;31237;45.586;13.782;2023-03-01T00:41:17;3.30;76.70
45491;DHT22;31237;45.586;13.782;2023-03-01T00:43:44;3.40;76.50
45491;DHT22;31237;45.586;13.782;2023-03-01T00:46:15;3.40;76.40
45491;DHT22;31237;45.586;13.782;2023-03-01T00:48:41;3.40;76.30
45491;DHT22;31237;45.586;13.782;2023-03-01T00:51:10;3.40;76.20
45491;DHT22;31237;45.586;13.782;2023-03-01T00:53:36;3.40;76.10
45491;DHT22;31237;45.586;13.782;2023-03-01T00:56:03;3.40;75.80
45491;DHT22;31237;45.586;13.782;2023-03-01T00:58:29;3.50;75.70
45491;DHT22;31237;45.586;13.782;2023-03-01T01:00:55;3.50;75.70
45491;DHT22;31237;45.586;13.782;2023-03-01T01:03:21;3.40;75.50
45491;DHT22;31237;45.586;13.782;2023-03-01T01:05:48;3.50;75.30
45491;DHT22;31237;45.586;13.782;2023-03-01T01:08:14;3.50;75.10
45491;DHT22;31237;45.586;13.782;2023-03-01T01:10:40;3.50;75.00
45491;DHT22;31237;45.586;13.782;2023-03-01T01:13:05;3.50;74.90
45491;DHT22;31237;45.586;13.782;2023-03-01T01:15:35;3.60;74.90
45491;DHT22;31237;45.586;13.782;2023-03-01T01:18:01;3.50;74.60
45491;DHT22;31237;45.586;13.782;2023-03-01T01:20:27;3.60;74.60
45491;DHT22;31237;45.586;13.782;2023-03-01T01:22:53;3.50;74.50
45491;DHT22;31237;45.586;13.782;2023-03-01T01:25:19;3.50;74.60
45491;DHT22;31237;45.586;13.782;2023-03-01T01:27:45;3.50;74.80
45491;DHT22;31237;45.586;13.782;2023-03-01T01:30:11;3.50;74.90
45491;DHT22;31237;45.586;13.782;2023-03-01T01:32:37;3.50;74.90
45491;DHT22;31237;45.586;13.782;2023-03-01T01:35:03;3.40;74.80
45491;DHT22;31237;45.586;13.782;2023-03-01T01:37:28;3.50;74.80
45491;DHT22;31237;45.586;13.782;2023-03-01T01:40:00;3.50;74.90
45491;DHT22;31237;45.586;13.782;2023-03-01T01:42:26;3.50;74.90
45491;DHT22;31237;45.586;13.782;2023-03-01T01:45:25;3.50;75.00
45491;DHT22;31237;45.586;13.782;2023-03-01T01:47:52;3.50;75.00
45491;DHT22;31237;45.586;13.782;2023-03-01T01:50:19;3.60;75.00
45491;DHT22;31237;45.586;13.782;2023-03-01T01:52:45;3.60;74.80
45491;DHT22;31237;45.586;13.782;2023-03-01T01:55:22;3.70;74.80
45491;DHT22;31237;45.586;13.782;2023-03-01T01:57:52;3.70;74.00
45491;DHT22;31237;45.586;13.782;2023-03-01T02:00:24;3.80;73.70
45491;DHT22;31237;45.586;13.782;2023-03-01T02:03:22;3.80;73.80
45491;DHT22;31237;45.586;13.782;2023-03-01T02:06:01;3.80;73.60
45491;DHT22;31237;45.586;13.782;2023-03-01T02:08:31;3.80;73.70
45491;DHT22;31237;45.586;13.782;2023-03-01T02:10:59;3.80;73.80
45491;DHT22;31237;45.586;13.782;2023-03-01T02:13:26;3.80;73.50
45491;DHT22;31237;45.586;13.782;2023-03-01T02:15:52;3.80;73.50
45491;DHT22;31237;45.586;13.782;2023-03-01T02:18:20;3.80;73.50
45491;DHT22;31237;45.586;13.782;2023-03-01T02:24:16;3.80;73.60
45491;DHT22;31237;45.586;13.782;2023-03-01T02:26:50;3.80;73.30
45491;DHT22;31237;45.586;13.782;2023-03-01T02:29:17;3.80;73.20
45491;DHT22;31237;45.586;13.782;2023-03-01T02:31:43;3.90;73.20
45491;DHT22;31237;45.586;13.782;2023-03-01T02:34:16;3.90;73.20
45491;DHT22;31237;45.586;13.782;2023-03-01T02:36:56;3.90;72.90
45491;DHT22;31237;45.586;13.782;2023-03-01T02:39:26;3.90;72.80
45491;DHT22;31237;45.586;13.782;2023-03-01T02:41:54;4.00;72.80
45491;DHT22;31237;45.586;13.782;2023-03-01T02:44:21;4.00;72.70
45491;DHT22;31237;45.586;13.782;2023-03-01T02:46:50;4.00;72.40
45491;DHT22;31237;45.586;13.782;2023-03-01T02:54:41;4.10;71.60
45491;DHT22;31237;45.586;13.782;2023-03-01T02:57:08;4.10;71.40
45491;DHT22;31237;45.586;13.782;2023-03-01T02:59:35;4.20;71.40
45491;DHT22;31237;45.586;13.782;2023-03-01T03:02:05;4.20;71.30
45491;DHT22;31237;45.586;13.782;2023-03-01T03:04:31;4.20;71.10
45491;DHT22;31237;45.586;13.782;2023-03-01T03:06:57;4.20;70.70
45491;DHT22;31237;45.586;13.782;2023-03-01T03:09:23;4.20;70.70
45491;DHT22;31237;45.586;13.782;2023-03-01T03:11:49;4.20;71.40
45491;DHT22;31237;45.586;13.782;2023-03-01T03:14:16;4.30;71.00
45491;DHT22;31237;45.586;13.782;2023-03-01T03:16:44;4.30;71.10
45491;DHT22;31237;45.586;13.782;2023-03-01T03:19:10;4.30;71.10
45491;DHT22;31237;45.586;13.782;2023-03-01T03:21:36;4.30;71.20
45491;DHT22;31237;45.586;13.782;2023-03-01T03:24:03;4.30;71.30
45491;DHT22;31237;45.586;13.782;2023-03-01T03:26:29;4.30;71.20
45491;DHT22;31237;45.586;13.782;2023-03-01T03:28:55;4.40;71.20
45491;DHT22;31237;45.586;13.782;2023-03-01T03:31:21;4.40;71.20
45491;DHT22;31237;45.586;13.782;2023-03-01T03:33:46;4.40;70.70
45491;DHT22;31237;45.586;13.782;2023-03-01T03:36:21;4.50;70.70
45491;DHT22;31237;45.586;13.782;2023-03-01T03:38:47;4.50;70.80
45491;DHT22;31237;45.586;13.782;2023-03-01T03:41:13;4.50;70.80
45491;DHT22;31237;45.586;13.782;2023-03-01T03:43:40;4.40;70.80
45491;DHT22;31237;45.586;13.782;2023-03-01T03:46:09;4.40;70.40
45491;DHT22;31237;45.586;13.782;2023-03-01T03:48:36;4.40;70.60
45491;DHT22;31237;45.586;13.782;2023-03-01T03:51:02;4.50;70.60
45491;DHT22;31237;45.586;13.782;2023-03-01T03:53:31;4.40;70.60
45491;DHT22;31237;45.586;13.782;2023-03-01T03:55:57;4.40;70.60
45491;DHT22;31237;45.586;13.782;2023-03-01T03:58:25;4.40;70.60
45491;DHT22;31237;45.586;13.782;2023-03-01T04:00:56;4.40;70.60
45491;DHT22;31237;45.586;13.782;2023-03-01T04:03:23;4.40;70.80
45491;DHT22;31237;45.586;13.782;2023-03-01T04:05:51;4.40;70.80
45491;DHT22;31237;45.586;13.782;2023-03-01T04:08:18;4.40;71.10
45491;DHT22;31237;45.586;13.782;2023-03-01T04:10:47;4.40;70.60
45491;DHT22;31237;45.586;13.782;2023-03-01T04:13:15;4.40;70.50
45491;DHT22;31237;45.586;13.782;2023-03-01T04:15:42;4.40;70.40
45491;DHT22;31237;45.586;13.782;2023-03-01T04:18:15;4.40;70.60
45491;DHT22;31237;45.586;13.782;2023-03-01T04:20:42;4.40;70.70
45491;DHT22;31237;45.586;13.782;2023-03-01T04:23:09;4.40;70.80
45491;DHT22;31237;45.586;13.782;2023-03-01T04:28:11;4.40;71.00
45491;DHT22;31237;45.586;13.782;2023-03-01T04:30:38;4.40;70.50
45491;DHT22;31237;45.586;13.782;2023-03-01T04:33:09;4.40;70.60
45491;DHT22;31237;45.586;13.782;2023-03-01T04:35:35;4.40;70.70
45491;DHT22;31237;45.586;13.782;2023-03-01T04:38:02;4.40;70.70
45491;DHT22;31237;45.586;13.782;2023-03-01T04:40:28;4.40;70.70
45491;DHT22;31237;45.586;13.782;2023-03-01T04:42:54;4.50;70.60
45491;DHT22;31237;45.586;13.782;2023-03-01T04:45:20;4.50;70.60
45491;DHT22;31237;45.586;13.782;2023-03-01T04:47:46;4.50;70.30
45491;DHT22;31237;45.586;13.782;2023-03-01T04:50:15;4.50;70.10
45491;DHT22;31237;45.586;13.782;2023-03-01T04:52:42;4.50;69.70
45491;DHT22;31237;45.586;13.782;2023-03-01T04:55:08;4.50;69.90
45491;DHT22;31237;45.586;13.782;2023-03-01T04:57:34;4.50;69.80
45491;DHT22;31237;45.586;13.782;2023-03-01T05:00:00;4.40;69.90
45491;DHT22;31237;45.586;13.782;2023-03-01T05:02:26;4.40;70.00
45491;DHT22;31237;45.586;13.782;2023-03-01T05:04:51;4.40;69.80
45491;DHT22;31237;45.586;13.782;2023-03-01T05:07:17;4.40;69.90
45491;DHT22;31237;45.586;13.782;2023-03-01T05:09:48;4.40;70.10
45491;DHT22;31237;45.586;13.782;2023-03-01T05:12:14;4.40;70.10
45491;DHT22;31237;45.586;13.782;2023-03-01T05:14:40;4.40;70.00
45491;DHT22;31237;45.586;13.782;2023-03-01T05:17:07;4.40;70.20
45491;DHT22;31237;45.586;13.782;2023-03-01T05:19:33;4.40;70.00
45491;DHT22;31237;45.586;13.782;2023-03-01T05:21:59;4.40;70.10
45491;DHT22;31237;45.586;13.782;2023-03-01T05:24:30;4.40;70.10
45491;DHT22;31237;45.586;13.782;2023-03-01T05:26:57;4.40;70.00
45491;DHT22;31237;45.586;13.782;2023-03-01T05:29:24;4.40;70.10
45491;DHT22;31237;45.586;13.782;2023-03-01T05:34:19;4.40;69.90
45491;DHT22;31237;45.586;13.782;2023-03-01T05:36:48;4.40;70.00
45491;DHT22;31237;45.586;13.782;2023-03-01T05:39:14;4.50;69.80
45491;DHT22;31237;45.586;13.782;2023-03-01T05:41:39;4.40;69.50
45491;DHT22;31237;45.586;13.782;2023-03-01T05:44:06;4.40;69.50
45491;DHT22;31237;45.586;13.782;2023-03-01T05:46:32;4.40;69.50
45491;DHT22;31237;45.586;13.782;2023-03-01T05:48:58;4.40;69.60
45491;DHT22;31237;45.586;13.782;2023-03-01T05:51:23;4.40;69.50
45491;DHT22;31237;45.586;13.782;2023-03-01T05:53:49;4.40;69.50
45491;DHT22;31237;45.586;13.782;2023-03-01T05:56:15;4.40;69.50
45491;DHT22;31237;45.586;13.782;2023-03-01T05:58:40;4.40;69.50
45491;DHT22;31237;45.586;13.782;2023-03-01T06:01:11;4.40;69.60
45491;DHT22;31237;45.586;13.782;2023-03-01T06:03:37;4.30;69.70
45491;DHT22;31237;45.586;13.782;2023-03-01T06:06:03;4.30;69.70
45491;DHT22;31237;45.586;13.782;2023-03-01T06:08:29;4.30;69.90
45491;DHT22;31237;45.586;13.782;2023-03-01T06:10:54;4.30;70.00
45491;DHT22;31237;45.586;13.782;2023-03-01T06:13:20;4.30;69.90
45491;DHT22;31237;45.586;13.782;2023-03-01T06:15:46;4.30;70.00
45491;DHT22;31237;45.586;13.782;2023-03-01T06:18:12;4.30;70.00
45491;DHT22;31237;45.586;13.782;2023-03-01T06:20:37;4.40;70.00
45491;DHT22;31237;45.586;13.782;2023-03-01T06:23:03;4.40;70.10
45491;DHT22;31237;45.586;13.782;2023-03-01T06:25:29;4.40;70.10
45491;DHT22;31237;45.586;13.782;2023-03-01T06:27:55;4.50;69.90
45491;DHT22;31237;45.586;13.782;2023-03-01T06:30:22;4.50;69.80
45491;DHT22;31237;45.586;13.782;2023-03-01T06:32:49;4.50;69.60
45491;DHT22;31237;45.586;13.782;2023-03-01T06:35:16;4.50;69.70
45491;DHT22;31237;45.586;13.782;2023-03-01T06:37:46;4.50;70.10
45491;DHT22;31237;45.586;13.782;2023-03-01T06:40:12;4.50;70.20
45491;DHT22;31237;45.586;13.782;2023-03-01T06:42:41;4.50;70.10
45491;DHT22;31237;45.586;13.782;2023-03-01T06:45:08;4.50;70.10
45491;DHT22;31237;45.586;13.782;2023-03-01T06:47:34;4.60;70.00
45491;DHT22;31237;45.586;13.782;2023-03-01T06:50:01;4.60;70.20
45491;DHT22;31237;45.586;13.782;2023-03-01T06:52:26;4.60;70.30
45491;DHT22;31237;45.586;13.782;2023-03-01T06:54:53;4.60;70.20
45491;DHT22;31237;45.586;13.782;2023-03-01T06:57:18;4.70;70.20
45491;DHT22;31237;45.586;13.782;2023-03-01T06:59:44;4.70;70.00
45491;DHT22;31237;45.586;13.782;2023-03-01T07:02:11;4.70;69.90
45491;DHT22;31237;45.586;13.782;2023-03-01T07:04:37;4.80;69.90
45491;DHT22;31237;45.586;13.782;2023-03-01T07:07:03;4.80;69.80
45491;DHT22;31237;45.586;13.782;2023-03-01T07:09:29;4.80;70.00
45491;DHT22;31237;45.586;13.782;2023-03-01T07:11:56;4.80;70.00
45491;DHT22;31237;45.586;13.782;2023-03-01T07:14:22;4.70;70.30
45491;DHT22;31237;45.586;13.782;2023-03-01T07:16:51;4.80;70.40
45491;DHT22;31237;45.586;13.782;2023-03-01T07:19:17;4.80;70.50
45491;DHT22;31237;45.586;13.782;2023-03-01T07:21:42;4.80;70.50
45491;DHT22;31237;45.586;13.782;2023-03-01T07:24:08;4.80;70.70
45491;DHT22;31237;45.586;13.782;2023-03-01T07:26:34;4.90;70.60
45491;DHT22;31237;45.586;13.782;2023-03-01T07:29:02;4.90;70.80
45491;DHT22;31237;45.586;13.782;2023-03-01T07:31:28;5.00;70.60
45491;DHT22;31237;45.586;13.782;2023-03-01T07:33:54;5.10;70.40
45491;DHT22;31237;45.586;13.782;2023-03-01T07:36:21;5.10;69.90
45491;DHT22;31237;45.586;13.782;2023-03-01T07:38:47;5.10;70.00
45491;DHT22;31237;45.586;13.782;2023-03-01T07:41:13;5.10;69.80
45491;DHT22;31237;45.586;13.782;2023-03-01T07:43:39;5.10;70.00
45491;DHT22;31237;45.586;13.782;2023-03-01T07:46:05;5.10;70.00
45491;DHT22;31237;45.586;13.782;2023-03-01T07:48:32;5.00;70.00
45491;DHT22;31237;45.586;13.782;2023-03-01T07:51:02;5.00;70.10
45491;DHT22;31237;45.586;13.782;2023-03-01T07:53:29;5.00;70.30
45491;DHT22;31237;45.586;13.782;2023-03-01T07:56:07;5.00;70.60
45491;DHT22;31237;45.586;13.782;2023-03-01T07:58:39;5.00;70.90
45491;DHT22;31237;45.586;13.782;2023-03-01T08:01:08;5.00;70.50
45491;DHT22;31237;45.586;13.782;2023-03-01T08:03:34;5.00;70.70
45491;DHT22;31237;45.586;13.782;2023-03-01T08:06:01;4.90;70.50
45491;DHT22;31237;45.586;13.782;2023-03-01T08:08:28;4.90;70.80
45491;DHT22;31237;45.586;13.782;2023-03-01T08:10:57;5.00;71.40
45491;DHT22;31237;45.586;13.782;2023-03-01T08:13:22;5.10;71.60
45491;DHT22;31237;45.586;13.782;2023-03-01T08:15:49;5.20;71.60
45491;DHT22;31237;45.586;13.782;2023-03-01T08:18:16;5.40;70.90
45491;DHT22;31237;45.586;13.782;2023-03-01T08:20:41;5.50;70.70
45491;DHT22;31237;45.586;13.782;2023-03-01T08:23:07;5.60;70.30
45491;DHT22;31237;45.586;13.782;2023-03-01T08:25:33;5.70;69.80
45491;DHT22;31237;45.586;13.782;2023-03-01T08:27:58;5.80;69.70
45491;DHT22;31237;45.586;13.782;2023-03-01T08:30:24;5.90;69.10
45491;DHT22;31237;45.586;13.782;2023-03-01T08:32:50;5.90;68.60
45491;DHT22;31237;45.586;13.782;2023-03-01T08:35:16;5.90;68.50
45491;DHT22;31237;45.586;13.782;2023-03-01T08:37:42;5.90;68.80
45491;DHT22;31237;45.586;13.782;2023-03-01T08:40:08;5.90;68.90
45491;DHT22;31237;45.586;13.782;2023-03-01T08:42:36;5.90;69.10
45491;DHT22;31237;45.586;13.782;2023-03-01T08:45:03;5.90;68.60
45491;DHT22;31237;45.586;13.782;2023-03-01T08:47:29;5.80;68.90
45491;DHT22;31237;45.586;13.782;2023-03-01T08:49:55;5.80;68.90
45491;DHT22;31237;45.586;13.782;2023-03-01T08:52:21;5.80;69.20
45491;DHT22;31237;45.586;13.782;2023-03-01T08:54:50;5.90;69.20
45491;DHT22;31237;45.586;13.782;2023-03-01T08:57:16;6.00;68.80
45491;DHT22;31237;45.586;13.782;2023-03-01T08:59:41;6.10;68.60
45491;DHT22;31237;45.586;13.782;2023-03-01T09:02:15;6.20;68.70
45491;DHT22;31237;45.586;13.782;2023-03-01T09:04:41;6.30;68.50
45491;DHT22;31237;45.586;13.782;2023-03-01T09:07:07;6.50;67.70
45491;DHT22;31237;45.586;13.782;2023-03-01T09:09:34;6.60;67.00
45491;DHT22;31237;45.586;13.782;2023-03-01T09:12:00;6.60;67.00
45491;DHT22;31237;45.586;13.782;2023-03-01T09:14:25;6.60;67.30
45491;DHT22;31237;45.586;13.782;2023-03-01T09:16:51;6.70;67.00
45491;DHT22;31237;45.586;13.782;2023-03-01T09:19:17;6.80;66.60
45491;DHT22;31237;45.586;13.782;2023-03-01T09:21:43;6.80;66.70
45491;DHT22;31237;45.586;13.782;2023-03-01T09:24:19;6.80;66.40
45491;DHT22;31237;45.586;13.782;2023-03-01T09:26:46;6.90;65.90
45491;DHT22;31237;45.586;13.782;2023-03-01T09:29:12;6.90;65.70
45491;DHT22;31237;45.586;13.782;2023-03-01T09:31:38;6.80;65.50
45491;DHT22;31237;45.586;13.782;2023-03-01T09:34:04;6.70;66.00
45491;DHT22;31237;45.586;13.782;2023-03-01T09:36:31;6.70;66.20
45491;DHT22;31237;45.586;13.782;2023-03-01T09:38:57;6.70;66.30
45491;DHT22;31237;45.586;13.782;2023-03-01T09:44:27;6.70;66.70
45491;DHT22;31237;45.586;13.782;2023-03-01T09:46:55;6.60;66.80
45491;DHT22;31237;45.586;13.782;2023-03-01T09:49:25;6.60;67.20
45491;DHT22;31237;45.586;13.782;2023-03-01T09:52:17;6.60;67.40
45491;DHT22;31237;45.586;13.782;2023-03-01T09:54:46;6.60;67.50
45491;DHT22;31237;45.586;13.782;2023-03-01T09:57:28;6.60;67.40
45491;DHT22;31237;45.586;13.782;2023-03-01T10:00:20;6.60;67.10
45491;DHT22;31237;45.586;13.782;2023-03-01T10:10:49;6.40;68.30
45491;DHT22;31237;45.586;13.782;2023-03-01T10:15:47;6.30;68.60
45491;DHT22;31237;45.586;13.782;2023-03-01T10:18:27;6.30;68.60
45491;DHT22;31237;45.586;13.782;2023-03-01T10:21:02;6.30;68.70
45491;DHT22;31237;45.586;13.782;2023-03-01T10:23:32;6.30;68.90
45491;DHT22;31237;45.586;13.782;2023-03-01T10:31:32;6.30;68.80
45491;DHT22;31237;45.586;13.782;2023-03-01T10:34:02;6.30;69.20
45491;DHT22;31237;45.586;13.782;2023-03-01T10:36:39;6.30;69.00
45491;DHT22;31237;45.586;13.782;2023-03-01T10:39:19;6.30;69.10
45491;DHT22;31237;45.586;13.782;2023-03-01T10:41:54;6.20;69.40
45491;DHT22;31237;45.586;13.782;2023-03-01T10:44:48;6.20;69.50
45491;DHT22;31237;45.586;13.782;2023-03-01T10:47:32;6.20;69.60
45491;DHT22;31237;45.586;13.782;2023-03-01T10:50:02;6.20;69.40
45491;DHT22;31237;45.586;13.782;2023-03-01T10:52:33;6.20;69.20
45491;DHT22;31237;45.586;13.782;2023-03-01T10:55:03;6.20;69.30
45491;DHT22;31237;45.586;13.782;2023-03-01T11:00:15;6.30;69.10
45491;DHT22;31237;45.586;13.782;2023-03-01T11:03:02;6.30;69.20
45491;DHT22;31237;45.586;13.782;2023-03-01T11:05:29;6.30;69.00
45491;DHT22;31237;45.586;13.782;2023-03-01T11:07:59;6.30;69.10
45491;DHT22;31237;45.586;13.782;2023-03-01T11:10:33;6.40;69.90
45491;DHT22;31237;45.586;13.782;2023-03-01T11:15:42;6.40;69.20
45491;DHT22;31237;45.586;13.782;2023-03-01T11:18:22;6.50;69.00
45491;DHT22;31237;45.586;13.782;2023-03-01T11:20:50;6.60;69.00
45491;DHT22;31237;45.586;13.782;2023-03-01T11:23:17;6.70;68.70
45491;DHT22;31237;45.586;13.782;2023-03-01T11:26:05;6.70;68.50
45491;DHT22;31237;45.586;13.782;2023-03-01T11:28:34;6.70;68.40
45491;DHT22;31237;45.586;13.782;2023-03-01T11:31:09;6.70;68.20
45491;DHT22;31237;45.586;13.782;2023-03-01T11:34:02;6.60;68.30
45491;DHT22;31237;45.586;13.782;2023-03-01T11:36:52;6.60;68.70
45491;DHT22;31237;45.586;13.782;2023-03-01T11:39:34;6.60;68.60
45491;DHT22;31237;45.586;13.782;2023-03-01T11:45:12;6.60;68.30
45491;DHT22;31237;45.586;13.782;2023-03-01T11:47:48;6.60;68.30
45491;DHT22;31237;45.586;13.782;2023-03-01T11:53:15;6.70;67.70
45491;DHT22;31237;45.586;13.782;2023-03-01T12:09:36;6.80;68.00
45491;DHT22;31237;45.586;13.782;2023-03-01T12:25:30;7.00;67.40
45491;DHT22;31237;45.586;13.782;2023-03-01T12:33:22;6.90;68.10
45491;DHT22;31237;45.586;13.782;2023-03-01T12:49:30;6.80;68.20
45491;DHT22;31237;45.586;13.782;2023-03-01T12:55:18;6.80;68.60
45491;DHT22;31237;45.586;13.782;2023-03-01T12:58:24;6.70;68.80
45491;DHT22;31237;45.586;13.782;2023-03-01T13:08:42;6.70;67.90
45491;DHT22;31237;45.586;13.782;2023-03-01T13:11:18;6.70;67.50
45491;DHT22;31237;45.586;13.782;2023-03-01T13:13:45;6.70;67.40
45491;DHT22;31237;45.586;13.782;2023-03-01T13:19:16;6.60;67.90
45491;DHT22;31237;45.586;13.782;2023-03-01T13:21:44;6.50;67.90
45491;DHT22;31237;45.586;13.782;2023-03-01T13:24:28;6.50;68.00
45491;DHT22;31237;45.586;13.782;2023-03-01T13:37:40;6.10;70.20
45491;DHT22;31237;45.586;13.782;2023-03-01T13:42:45;6.00;71.00
45491;DHT22;31237;45.586;13.782;2023-03-01T13:47:49;5.90;71.40
45491;DHT22;31237;45.586;13.782;2023-03-01T13:50:29;5.90;71.20
45491;DHT22;31237;45.586;13.782;2023-03-01T13:53:01;5.90;71.00
45491;DHT22;31237;45.586;13.782;2023-03-01T13:55:51;5.90;71.20
45491;DHT22;31237;45.586;13.782;2023-03-01T13:58:27;6.00;71.30
45491;DHT22;31237;45.586;13.782;2023-03-01T14:01:02;5.90;71.10
45491;DHT22;31237;45.586;13.782;2023-03-01T14:03:30;6.00;71.20
45491;DHT22;31237;45.586;13.782;2023-03-01T14:06:15;6.00;71.00
45491;DHT22;31237;45.586;13.782;2023-03-01T14:08:43;6.00;71.10
45491;DHT22;31237;45.586;13.782;2023-03-01T14:11:29;6.00;71.30
45491;DHT22;31237;45.586;13.782;2023-03-01T14:17:10;6.00;71.20
45491;DHT22;31237;45.586;13.782;2023-03-01T14:19:36;6.00;71.50
45491;DHT22;31237;45.586;13.782;2023-03-01T14:24:58;6.00;72.40
45491;DHT22;31237;45.586;13.782;2023-03-01T14:27:26;5.90;73.30
45491;DHT22;31237;45.586;13.782;2023-03-01T14:29:59;5.90;74.50
45491;DHT22;31237;45.586;13.782;2023-03-01T14:32:31;5.80;76.50
45491;DHT22;31237;45.586;13.782;2023-03-01T14:34:58;5.60;78.00
45491;DHT22;31237;45.586;13.782;2023-03-01T14:37:27;5.50;78.90
45491;DHT22;31237;45.586;13.782;2023-03-01T14:39:54;5.40;79.20
45491;DHT22;31237;45.586;13.782;2023-03-01T14:42:22;5.40;79.90
45491;DHT22;31237;45.586;13.782;2023-03-01T14:44:51;5.30;80.90
45491;DHT22;31237;45.586;13.782;2023-03-01T14:47:31;5.20;80.80
45491;DHT22;31237;45.586;13.782;2023-03-01T14:50:03;5.20;80.50
45491;DHT22;31237;45.586;13.782;2023-03-01T14:52:51;5.20;79.90
45491;DHT22;31237;45.586;13.782;2023-03-01T14:55:19;5.20;79.00
45491;DHT22;31237;45.586;13.782;2023-03-01T14:57:48;5.20;78.60
45491;DHT22;31237;45.586;13.782;2023-03-01T15:00:24;5.20;78.60
45491;DHT22;31237;45.586;13.782;2023-03-01T15:02:52;5.30;78.20
45491;DHT22;31237;45.586;13.782;2023-03-01T15:05:39;5.30;77.50
45491;DHT22;31237;45.586;13.782;2023-03-01T15:08:06;5.30;77.30
45491;DHT22;31237;45.586;13.782;2023-03-01T15:10:34;5.30;77.30
45491;DHT22;31237;45.586;13.782;2023-03-01T15:13:19;5.30;77.10
45491;DHT22;31237;45.586;13.782;2023-03-01T15:15:47;5.40;76.70
45491;DHT22;31237;45.586;13.782;2023-03-01T15:18:25;5.40;77.10
45491;DHT22;31237;45.586;13.782;2023-03-01T15:20:52;5.40;76.90
45491;DHT22;31237;45.586;13.782;2023-03-01T15:25:46;5.40;76.50
45491;DHT22;31237;45.586;13.782;2023-03-01T15:28:25;5.40;76.70
45491;DHT22;31237;45.586;13.782;2023-03-01T15:31:00;5.40;76.60
45491;DHT22;31237;45.586;13.782;2023-03-01T15:39:00;5.40;76.70
45491;DHT22;31237;45.586;13.782;2023-03-01T15:41:46;5.40;76.90
45491;DHT22;31237;45.586;13.782;2023-03-01T15:44:26;5.40;76.80
45491;DHT22;31237;45.586;13.782;2023-03-01T15:46:53;5.40;76.50
45491;DHT22;31237;45.586;13.782;2023-03-01T15:51:55;5.40;76.60
45491;DHT22;31237;45.586;13.782;2023-03-01T15:54:24;5.50;76.30
45491;DHT22;31237;45.586;13.782;2023-03-01T15:56:50;5.50;75.90
45491;DHT22;31237;45.586;13.782;2023-03-01T15:59:17;5.40;75.90
45491;DHT22;31237;45.586;13.782;2023-03-01T16:01:44;5.50;75.60
45491;DHT22;31237;45.586;13.782;2023-03-01T16:04:11;5.50;75.60
45491;DHT22;31237;45.586;13.782;2023-03-01T16:06:47;5.50;75.40
45491;DHT22;31237;45.586;13.782;2023-03-01T16:09:23;5.50;75.10
45491;DHT22;31237;45.586;13.782;2023-03-01T16:11:49;5.60;75.10
45491;DHT22;31237;45.586;13.782;2023-03-01T16:14:16;5.60;74.80
45491;DHT22;31237;45.586;13.782;2023-03-01T16:16:42;5.60;75.30
45491;DHT22;31237;45.586;13.782;2023-03-01T16:19:08;5.60;74.60
45491;DHT22;31237;45.586;13.782;2023-03-01T16:21:34;5.60;74.60
45491;DHT22;31237;45.586;13.782;2023-03-01T16:24:00;5.60;74.50
45491;DHT22;31237;45.586;13.782;2023-03-01T16:26:26;5.70;74.50
45491;DHT22;31237;45.586;13.782;2023-03-01T16:28:55;5.70;74.40
45491;DHT22;31237;45.586;13.782;2023-03-01T16:31:22;5.70;74.50
45491;DHT22;31237;45.586;13.782;2023-03-01T16:33:48;5.70;74.70
45491;DHT22;31237;45.586;13.782;2023-03-01T16:36:19;5.70;74.80
45491;DHT22;31237;45.586;13.782;2023-03-01T16:38:45;5.70;75.00
45491;DHT22;31237;45.586;13.782;2023-03-01T16:41:13;5.70;75.20
45491;DHT22;31237;45.586;13.782;2023-03-01T16:43:39;5.60;75.20
45491;DHT22;31237;45.586;13.782;2023-03-01T16:46:13;5.70;75.30
45491;DHT22;31237;45.586;13.782;2023-03-01T16:48:39;5.70;75.40
45491;DHT22;31237;45.586;13.782;2023-03-01T16:51:05;5.70;75.40
45491;DHT22;31237;45.586;13.782;2023-03-01T16:53:33;5.70;75.40
45491;DHT22;31237;45.586;13.782;2023-03-01T16:55:59;5.70;75.50
45491;DHT22;31237;45.586;13.782;2023-03-01T16:58:25;5.70;75.50
45491;DHT22;31237;45.586;13.782;2023-03-01T17:00:52;5.70;75.50
45491;DHT22;31237;45.586;13.782;2023-03-01T17:03:23;5.70;75.70
45491;DHT22;31237;45.586;13.782;2023-03-01T17:05:49;5.70;75.70
45491;DHT22;31237;45.586;13.782;2023-03-01T17:08:15;5.70;75.70
45491;DHT22;31237;45.586;13.782;2023-03-01T17:10:42;5.70;75.60
45491;DHT22;31237;45.586;13.782;2023-03-01T17:13:08;5.70;75.70
45491;DHT22;31237;45.586;13.782;2023-03-01T17:15:37;5.70;75.60
45491;DHT22;31237;45.586;13.782;2023-03-01T17:18:03;5.70;75.50
45491;DHT22;31237;45.586;13.782;2023-03-01T17:20:28;5.70;75.50
45491;DHT22;31237;45.586;13.782;2023-03-01T17:22:54;5.70;75.50
45491;DHT22;31237;45.586;13.782;2023-03-01T17:25:20;5.70;75.70
45491;DHT22;31237;45.586;13.782;2023-03-01T17:27:45;5.70;75.70
45491;DHT22;31237;45.586;13.782;2023-03-01T17:30:13;5.70;75.70
45491;DHT22;31237;45.586;13.782;2023-03-01T17:32:39;5.70;75.70
45491;DHT22;31237;45.586;13.782;2023-03-01T17:35:05;5.70;75.80
45491;DHT22;31237;45.586;13.782;2023-03-01T17:37:32;5.70;75.60
45491;DHT22;31237;45.586;13.782;2023-03-01T17:39:58;5.80;75.50
45491;DHT22;31237;45.586;13.782;2023-03-01T17:42:24;5.80;75.50
45491;DHT22;31237;45.586;13.782;2023-03-01T17:44:51;5.80;75.50
45491;DHT22;31237;45.586;13.782;2023-03-01T17:47:17;5.90;75.80
45491;DHT22;31237;45.586;13.782;2023-03-01T17:49:43;5.90;76.00
45491;DHT22;31237;45.586;13.782;2023-03-01T17:52:09;5.90;76.30
45491;DHT22;31237;45.586;13.782;2023-03-01T17:54:34;5.90;76.60
45491;DHT22;31237;45.586;13.782;2023-03-01T17:57:00;5.90;76.80
45491;DHT22;31237;45.586;13.782;2023-03-01T17:59:26;5.90;77.00